Time;durP1;ratioP1;P1;durP2;ratioP2;P2;SDS_P1;SDS_P2;PMS_P1;PMS_P2;Temp;Humidity;BMP_temperature;BMP_pressure;BME280_temperature;BME280_humidity;BME280_pressure;Samples;Min_cycle;Max_cycle;Signal;HPM_P1;HPM_P2
2021/03/26 00:00:19;;;;;;;10.37;8.43;;;;;;;12.24;59.35;96823.97;5133814;27;20453;-69
2021/03/26 00:02:45;;;;;;;12.87;9.93;;;;;;;12.35;59.07;96820.56;5132899;27;20429;-63
2021/03/26 00:05:16;;;;;;;13.47;9.80;;;;;;;12.46;59.50;96817.16;5134269;27;20890;-69
2021/03/26 00:07:41;;;;;;;9.20;8.03;;;;;;;12.45;60.28;96827.94;5133947;27;20410;-69
2021/03/26 00:10:10;;;;;;;9.13;8.23;;;;;;;12.53;59.92;96820.50;5134157;27;20430;-69
2021/03/26 00:12:36;;;;;;;9.57;7.63;;;;;;;12.47;60.60;96825.84;5126785;27;20622;-63
2021/03/26 00:15:02;;;;;;;9.07;8.23;;;;;;;12.50;60.44;96826.22;5133932;27;20402;-69
2021/03/26 00:17:27;;;;;;;8.47;7.67;;;;;;;12.53;60.57;96825.78;5113504;28;20698;-69
2021/03/26 00:19:53;;;;;;;9.10;8.07;;;;;;;12.53;60.36;96820.50;5118314;28;20446;-63
2021/03/26 00:22:18;;;;;;;9.77;8.73;;;;;;;12.57;60.54;96821.66;5134753;27;20172;-69
2021/03/26 00:24:43;;;;;;;9.93;8.40;;;;;;;12.47;60.73;96816.13;5134379;27;20625;-69
2021/03/26 00:27:09;;;;;;;9.90;8.20;;;;;;;12.44;61.27;96821.84;5133973;27;20505;-69
2021/03/26 00:29:34;;;;;;;10.20;9.20;;;;;;;12.40;60.82;96823.31;5124330;27;20197;-63
2021/03/26 00:32:00;;;;;;;10.10;8.20;;;;;;;12.40;60.63;96824.16;5113642;28;20173;-63
2021/03/26 00:34:25;;;;;;;9.50;8.43;;;;;;;12.32;60.21;96824.44;5116441;28;20510;-63
2021/03/26 00:36:51;;;;;;;8.97;8.00;;;;;;;12.26;59.90;96825.38;5133948;27;20164;-65
2021/03/26 00:39:16;;;;;;;10.90;8.70;;;;;;;12.10;60.08;96827.81;5133799;27;20199;-63
2021/03/26 00:41:42;;;;;;;12.10;8.77;;;;;;;12.16;59.77;96814.56;5134291;27;20579;-63
2021/03/26 00:44:07;;;;;;;10.53;8.60;;;;;;;12.16;60.71;96821.63;5133285;27;20181;-63
2021/03/26 00:46:34;;;;;;;9.50;8.43;;;;;;;12.23;60.00;96814.44;5133651;27;20186;-63
2021/03/26 00:49:00;;;;;;;9.60;8.50;;;;;;;12.17;60.58;96823.25;5131058;27;20237;-69
2021/03/26 00:51:25;;;;;;;9.73;8.80;;;;;;;12.02;60.33;96815.75;5113200;28;20747;-63
2021/03/26 00:53:51;;;;;;;12.03;8.67;;;;;;;11.85;60.50;96817.41;5113223;28;20193;-63
2021/03/26 00:56:16;;;;;;;11.07;9.30;;;;;;;11.70;60.88;96818.81;5113204;28;20205;-68
2021/03/26 00:58:41;;;;;;;10.70;9.53;;;;;;;11.69;61.23;96818.00;5131189;28;20200;-69
2021/03/26 01:01:07;;;;;;;12.67;8.87;;;;;;;11.27;62.75;96813.59;5133546;27;20196;-69
2021/03/26 01:03:33;;;;;;;9.27;8.17;;;;;;;11.23;63.02;96813.22;5133588;27;20200;-63
2021/03/26 01:06:05;;;;;;;10.83;8.70;;;;;;;11.08;63.81;96810.16;5134800;27;20241;-62
2021/03/26 01:08:30;;;;;;;10.33;9.00;;;;;;;11.03;63.71;96807.34;5137075;27;20482;-69
2021/03/26 01:11:26;;;;;;;13.17;9.27;;;;;;;10.78;64.85;96803.94;5117503;27;20820;-63
2021/03/26 01:13:52;;;;;;;11.80;8.50;;;;;;;10.66;65.09;96812.75;5104567;28;20215;-69
2021/03/26 01:16:19;;;;;;;11.93;8.93;;;;;;;10.58;65.71;96808.56;5117131;28;20838;-62
2021/03/26 01:18:46;;;;;;;11.60;8.77;;;;;;;10.60;65.84;96814.41;5116542;27;20198;-69
2021/03/26 01:21:15;;;;;;;11.57;10.37;;;;;;;10.68;65.34;96803.66;5117019;28;20450;-62
2021/03/26 01:23:42;;;;;;;10.33;9.20;;;;;;;10.75;64.99;96803.56;5118125;27;20894;-63
2021/03/26 01:26:07;;;;;;;10.33;8.60;;;;;;;10.63;65.79;96814.00;5130637;27;20754;-63
2021/03/26 01:28:33;;;;;;;14.10;9.30;;;;;;;10.71;65.34;96805.84;5136757;27;20451;-69
2021/03/26 01:30:59;;;;;;;12.17;8.70;;;;;;;10.50;66.22;96806.22;5137155;27;20207;-64
2021/03/26 01:33:24;;;;;;;9.70;8.70;;;;;;;10.62;65.90;96806.31;5135538;27;20175;-63
2021/03/26 01:35:51;;;;;;;14.17;11.07;;;;;;;10.69;65.75;96805.25;5137071;27;20172;-67
2021/03/26 01:38:18;;;;;;;14.10;8.70;;;;;;;10.84;65.31;96794.41;5135215;27;20216;-63
2021/03/26 01:40:47;;;;;;;10.10;9.00;;;;;;;10.96;64.68;96795.31;5135864;27;20545;-69
2021/03/26 01:43:27;;;;;;;11.00;9.00;;;;;;;11.21;64.00;96788.19;5137031;27;20399;-63
2021/03/26 01:45:54;;;;;;;10.77;9.03;;;;;;;11.29;63.60;96787.88;5137206;27;20461;-63
2021/03/26 01:48:37;;;;;;;9.80;8.87;;;;;;;11.25;63.27;96790.13;5136449;27;20793;-69
2021/03/26 01:51:06;;;;;;;10.93;9.83;;;;;;;11.30;63.28;96784.22;5137246;27;20402;-63
2021/03/26 01:53:32;;;;;;;10.60;9.00;;;;;;;11.39;62.87;96782.91;5130611;27;20836;-63
2021/03/26 01:55:59;;;;;;;13.00;8.70;;;;;;;11.50;62.50;96776.91;5116323;28;20490;-69
2021/03/26 01:58:29;;;;;;;9.30;8.40;;;;;;;11.62;62.96;96777.78;5133168;27;20313;-63
2021/03/26 02:00:59;;;;;;;11.63;8.47;;;;;;;11.74;62.35;96783.91;5136678;27;20814;-69
2021/03/26 02:03:35;;;;;;;10.23;8.63;;;;;;;11.65;62.43;96784.47;5137044;27;20866;-63
2021/03/26 02:06:06;;;;;;;9.60;8.53;;;;;;;11.61;62.06;96776.19;5136638;27;20893;-69
2021/03/26 02:08:34;;;;;;;9.97;7.87;;;;;;;11.64;61.91;96769.66;5134468;27;20552;-69
2021/03/26 02:11:05;;;;;;;13.60;9.30;;;;;;;11.68;61.60;96776.13;5136648;27;20444;-63
2021/03/26 02:13:33;;;;;;;9.27;8.23;;;;;;;11.44;62.43;96788.31;5128939;27;20423;-69
2021/03/26 02:16:00;;;;;;;8.80;7.93;;;;;;;11.18;63.58;96784.16;5115655;28;20407;-69
2021/03/26 02:18:30;;;;;;;10.07;8.40;;;;;;;11.06;64.19;96788.53;5114569;28;20433;-63
2021/03/26 02:21:03;;;;;;;10.87;8.00;;;;;;;11.28;63.65;96791.53;5115944;28;20494;-62
2021/03/26 02:23:30;;;;;;;9.17;8.27;;;;;;;11.38;62.92;96789.19;5115824;27;20403;-68
2021/03/26 02:25:59;;;;;;;9.00;7.40;;;;;;;11.39;63.08;96786.31;5114417;28;20785;-63
2021/03/26 02:28:25;;;;;;;9.87;8.40;;;;;;;11.29;63.02;96790.50;5116058;27;20534;-68
2021/03/26 02:30:58;;;;;;;10.50;8.50;;;;;;;11.41;62.79;96794.03;5115489;28;20460;-62
2021/03/26 02:33:25;;;;;;;8.90;8.03;;;;;;;11.38;62.82;96794.44;5115623;28;20464;-62
2021/03/26 02:36:13;;;;;;;12.70;8.90;;;;;;;11.35;62.55;96785.19;5115419;28;20452;-66
2021/03/26 02:38:43;;;;;;;9.97;8.70;;;;;;;10.95;64.61;96789.25;5122982;27;20438;-62
2021/03/26 02:41:08;;;;;;;10.57;8.83;;;;;;;10.85;65.14;96777.63;5135798;27;20478;-62
2021/03/26 02:43:46;;;;;;;11.03;8.90;;;;;;;10.68;66.31;96776.56;5123467;27;20811;-68
2021/03/26 02:46:28;;;;;;;10.33;9.10;;;;;;;10.65;66.13;96777.00;5115108;28;20168;-68
2021/03/26 02:49:18;;;;;;;14.43;10.20;;;;;;;10.74;66.12;96770.44;5120692;27;20462;-62
2021/03/26 02:51:50;;;;;;;10.70;8.90;;;;;;;10.96;65.23;96769.03;5133901;27;20442;-62
2021/03/26 02:54:15;;;;;;;12.10;9.03;;;;;;;11.08;64.43;96770.72;5134732;27;20426;-62
2021/03/26 02:56:50;;;;;;;11.73;9.53;;;;;;;11.04;64.67;96780.06;5135707;27;20417;-62
2021/03/26 02:59:24;;;;;;;10.53;9.03;;;;;;;10.92;65.03;96781.00;5135442;27;20192;-68
2021/03/26 03:01:52;;;;;;;9.60;8.67;;;;;;;10.94;65.04;96776.31;5135678;27;20410;-68
2021/03/26 03:04:26;;;;;;;10.43;9.33;;;;;;;11.11;64.36;96778.16;5135387;27;20413;-68
2021/03/26 03:06:59;;;;;;;12.67;9.30;;;;;;;10.98;65.45;96777.50;5132952;27;20446;-68
2021/03/26 03:09:28;;;;;;;12.63;10.67;;;;;;;10.78;65.76;96774.25;5135290;27;20422;-68
2021/03/26 03:12:02;;;;;;;11.90;9.40;;;;;;;10.65;66.04;96772.56;5134610;27;20403;-62
2021/03/26 03:14:36;;;;;;;12.53;10.43;;;;;;;10.63;66.35;96765.88;5118018;27;20522;-68
2021/03/26 03:17:09;;;;;;;11.50;9.63;;;;;;;10.81;65.51;96769.38;5114517;28;20816;-63
2021/03/26 03:19:47;;;;;;;15.77;10.30;;;;;;;10.93;65.22;96765.00;5114755;28;20845;-68
2021/03/26 03:22:20;;;;;;;13.90;9.23;;;;;;;10.94;65.01;96768.44;5114725;27;20426;-68
2021/03/26 03:24:47;;;;;;;12.37;9.23;;;;;;;11.03;64.52;96762.66;5114957;28;20403;-68
2021/03/26 03:27:42;;;;;;;12.43;10.70;;;;;;;10.85;65.08;96767.09;5129913;27;20454;-62
2021/03/26 03:30:17;;;;;;;11.70;10.50;;;;;;;10.62;66.26;96765.06;5130709;27;20540;-62
2021/03/26 03:33:11;;;;;;;10.30;9.17;;;;;;;10.69;66.01;96765.03;5135070;27;20900;-68
2021/03/26 03:36:01;;;;;;;13.03;10.00;;;;;;;10.67;66.13;96754.72;5117227;27;20426;-68
2021/03/26 03:38:49;;;;;;;11.87;10.07;;;;;;;10.67;65.73;96754.72;5113915;28;20426;-68
2021/03/26 03:41:40;;;;;;;14.57;10.80;;;;;;;10.61;66.36;96746.91;5115493;27;20458;-62
2021/03/26 03:44:17;;;;;;;13.13;10.40;;;;;;;10.66;66.31;96747.06;5117688;27;20430;-68
2021/03/26 03:46:51;;;;;;;14.17;10.43;;;;;;;10.45;67.20;96756.16;5112869;28;20433;-62
2021/03/26 03:49:40;;;;;;;13.40;11.57;;;;;;;10.29;68.02;96744.34;5114979;28;20465;-68
2021/03/26 03:52:34;;;;;;;14.47;11.70;;;;;;;10.34;67.93;96751.59;5114413;28;20435;-62
2021/03/26 03:55:18;;;;;;;12.87;11.40;;;;;;;10.50;67.37;96747.59;5058863;28;20414;-68
2021/03/26 03:58:03;;;;;;;14.13;11.17;;;;;;;10.68;66.48;96756.34;5113914;28;20433;-62
2021/03/26 04:00:33;;;;;;;11.97;10.60;;;;;;;10.64;66.60;96756.97;5115376;27;20943;-62
2021/03/26 04:03:19;;;;;;;11.60;10.33;;;;;;;10.65;66.82;96753.34;5114359;28;20396;-62
2021/03/26 04:05:57;;;;;;;12.47;10.93;;;;;;;10.82;66.11;96741.22;5114151;28;20412;-68
2021/03/26 04:08:32;;;;;;;14.23;11.50;;;;;;;10.77;66.21;96748.97;5113341;28;20844;-68
2021/03/26 04:11:14;;;;;;;14.60;11.00;;;;;;;10.78;66.46;96747.97;5114042;28;20480;-68
2021/03/26 04:13:46;;;;;;;12.83;11.17;;;;;;;10.84;66.18;96750.53;5113942;28;20403;-62
2021/03/26 04:16:15;;;;;;;12.67;10.80;;;;;;;10.70;66.81;96753.50;5115110;28;20415;-62
2021/03/26 04:19:04;;;;;;;12.00;10.70;;;;;;;10.91;66.05;96745.19;5113223;28;20487;-62
2021/03/26 04:21:35;;;;;;;11.77;9.97;;;;;;;10.96;65.58;96750.63;5127156;28;20471;-68
2021/03/26 04:24:15;;;;;;;13.70;10.20;;;;;;;10.97;65.83;96747.78;5134335;27;20781;-68
2021/03/26 04:26:52;;;;;;;14.93;10.77;;;;;;;10.94;65.84;96739.50;5134327;28;20418;-63
2021/03/26 04:29:46;;;;;;;11.83;10.60;;;;;;;10.59;67.00;96743.69;5132469;27;20430;-62
2021/03/26 04:32:14;;;;;;;13.07;11.70;;;;;;;10.54;67.16;96741.72;5113682;28;20430;-68
2021/03/26 04:34:43;;;;;;;11.80;10.27;;;;;;;10.66;66.61;96747.06;5113799;28;20402;-62
2021/03/26 04:37:31;;;;;;;20.50;10.97;;;;;;;10.54;67.56;96739.09;5132846;28;20425;-67
2021/03/26 04:40:11;;;;;;;18.13;11.37;;;;;;;10.36;68.22;96752.19;5130198;27;20458;-62
2021/03/26 04:42:56;;;;;;;12.07;10.50;;;;;;;10.46;68.10;96741.16;5138427;27;20409;-68
2021/03/26 04:45:56;;;;;;;11.33;10.13;;;;;;;10.55;67.77;96740.69;5136028;27;20508;-62
2021/03/26 04:48:36;;;;;;;11.63;10.23;;;;;;;10.50;67.89;96747.59;5137523;27;20445;-62
2021/03/26 04:51:06;;;;;;;11.47;10.40;;;;;;;10.67;67.13;96741.56;5138323;27;20851;-68
2021/03/26 04:53:46;;;;;;;13.30;9.93;;;;;;;10.79;66.55;96739.88;5138198;27;20409;-62
2021/03/26 04:56:18;;;;;;;12.00;9.60;;;;;;;10.98;65.86;96723.06;5124471;27;20414;-68
2021/03/26 04:58:53;;;;;;;10.90;9.90;;;;;;;11.06;65.75;96728.06;5127875;27;20450;-62
2021/03/26 05:01:19;;;;;;;12.10;9.70;;;;;;;11.19;65.51;96727.91;5117298;28;20473;-62
2021/03/26 05:04:25;;;;;;;10.00;9.10;;;;;;;11.14;65.44;96724.31;5117387;28;20449;-62
2021/03/26 05:07:04;;;;;;;11.30;9.60;;;;;;;11.19;64.90;96721.84;5108136;28;20425;-67
2021/03/26 05:09:34;;;;;;;13.60;9.43;;;;;;;11.15;64.81;96715.41;5115779;28;20447;-68
2021/03/26 05:12:12;;;;;;;9.50;8.50;;;;;;;11.22;64.83;96721.38;5117417;27;20402;-68
2021/03/26 05:14:43;;;;;;;11.03;9.70;;;;;;;11.23;64.41;96723.78;5118150;27;20454;-68
2021/03/26 05:17:21;;;;;;;14.27;12.20;;;;;;;11.05;65.14;96723.78;5117098;28;20396;-68
2021/03/26 05:19:55;;;;;;;10.63;9.00;;;;;;;11.12;65.25;96721.91;5125811;27;20497;-62
2021/03/26 05:22:42;;;;;;;10.83;9.10;;;;;;;11.20;65.40;96718.16;5117007;28;20391;-62
2021/03/26 05:25:11;;;;;;;10.13;9.13;;;;;;;11.20;65.72;96718.16;5116877;27;20889;-63
2021/03/26 05:27:37;;;;;;;10.23;9.17;;;;;;;11.20;65.40;96728.69;5129867;27;20418;-68
2021/03/26 05:30:04;;;;;;;10.97;9.40;;;;;;;11.16;65.25;96724.91;5137447;27;20436;-68
2021/03/26 05:32:46;;;;;;;12.53;10.30;;;;;;;11.03;65.55;96719.78;5136801;27;20422;-62
2021/03/26 05:35:29;;;;;;;13.70;9.90;;;;;;;11.07;65.39;96719.13;5132692;27;20434;-62
2021/03/26 05:38:25;;;;;;;12.90;10.10;;;;;;;11.05;65.42;96723.78;5116053;28;20883;-66
2021/03/26 05:41:26;;;;;;;11.80;9.80;;;;;;;11.03;65.70;96723.22;5135775;27;20798;-68
2021/03/26 05:43:57;;;;;;;13.20;9.97;;;;;;;11.08;65.24;96733.91;5137280;27;20406;-62
2021/03/26 05:47:14;;;;;;;12.60;10.23;;;;;;;11.07;65.77;96734.91;5137012;27;20410;-67
2021/03/26 05:49:42;;;;;;;13.90;10.03;;;;;;;11.16;65.33;96730.19;5033768;28;20431;-62
2021/03/26 05:52:13;;;;;;;14.90;10.63;;;;;;;11.24;65.16;96725.41;5032407;28;20414;-68
2021/03/26 05:54:51;;;;;;;12.40;10.10;;;;;;;11.15;65.41;96720.66;5095661;27;20422;-68
2021/03/26 05:57:22;;;;;;;20.90;11.30;;;;;;;11.08;65.91;96730.47;5136578;27;20416;-62
2021/03/26 06:00:42;;;;;;;12.30;10.20;;;;;;;11.16;65.88;96732.81;5118395;27;20486;-62
2021/03/26 06:03:36;;;;;;;12.90;10.17;;;;;;;11.25;65.73;96726.22;5033451;28;20448;-68
2021/03/26 06:06:26;;;;;;;12.77;10.57;;;;;;;11.25;66.40;96731.47;5116179;28;20406;-68
2021/03/26 06:09:01;;;;;;;19.60;11.60;;;;;;;11.30;66.27;96731.63;5123181;27;20517;-68
2021/03/26 06:11:51;;;;;;;11.97;10.13;;;;;;;11.33;66.58;96733.78;5136601;27;20889;-68
2021/03/26 06:14:23;;;;;;;16.00;10.93;;;;;;;11.23;67.22;96736.94;5134664;27;20410;-68
2021/03/26 06:17:10;;;;;;;13.57;10.80;;;;;;;11.32;67.03;96732.22;5136526;27;20412;-62
2021/03/26 06:19:50;;;;;;;15.73;10.90;;;;;;;11.47;66.67;96739.72;5117307;27;20433;-62
2021/03/26 06:22:31;;;;;;;16.80;11.97;;;;;;;11.61;65.87;96738.53;5116161;28;20410;-68
2021/03/26 06:25:33;;;;;;;11.80;10.47;;;;;;;11.71;65.58;96744.88;5115671;28;20391;-62
2021/03/26 06:28:18;;;;;;;12.37;10.30;;;;;;;11.74;65.24;96748.91;5115197;28;20395;-63
2021/03/26 06:31:24;;;;;;;13.53;10.67;;;;;;;11.50;65.32;96734.81;5115576;28;20901;-63
2021/03/26 06:34:02;;;;;;;17.10;11.63;;;;;;;11.73;64.71;96736.75;5079914;28;20784;-69
2021/03/26 06:37:02;;;;;;;14.30;10.13;;;;;;;11.77;64.49;96737.94;5115389;28;20502;-63
2021/03/26 06:39:52;;;;;;;12.13;10.73;;;;;;;11.87;63.88;96744.25;5118440;27;20987;-69
2021/03/26 06:42:53;;;;;;;21.53;12.60;;;;;;;11.90;63.66;96741.16;5115290;28;20419;-69
2021/03/26 06:45:34;;;;;;;14.37;11.63;;;;;;;11.98;63.61;96738.22;5036122;28;20441;-62
2021/03/26 06:48:14;;;;;;;15.30;11.67;;;;;;;11.98;63.26;96743.50;5106172;28;20433;-69
2021/03/26 06:51:01;;;;;;;13.90;11.73;;;;;;;12.03;62.85;96737.56;5115209;28;20484;-69
2021/03/26 06:53:41;;;;;;;14.47;11.30;;;;;;;11.93;63.95;96738.09;5116340;27;20443;-69
2021/03/26 06:56:51;;;;;;;12.50;10.60;;;;;;;12.05;63.04;96735.47;5115012;28;20723;-63
2021/03/26 06:59:38;;;;;;;14.30;10.93;;;;;;;12.19;62.71;96732.44;5136942;27;20430;-62
2021/03/26 07:02:34;;;;;;;13.33;10.63;;;;;;;12.08;62.77;96730.56;5115069;28;20406;-62
2021/03/26 07:05:12;;;;;;;11.80;10.17;;;;;;;11.59;64.58;96730.84;5114870;28;20792;-67
2021/03/26 07:07:55;;;;;;;11.47;9.93;;;;;;;11.89;63.98;96734.31;5119540;27;20805;-69
2021/03/26 07:10:34;;;;;;;13.87;9.97;;;;;;;12.02;62.92;96734.13;5114845;28;20465;-63
2021/03/26 07:13:21;;;;;;;12.50;10.13;;;;;;;12.15;62.92;96733.13;5114511;28;20411;-69
2021/03/26 07:16:08;;;;;;;12.30;10.20;;;;;;;12.39;62.86;96740.81;5132177;27;20893;-63
2021/03/26 07:18:56;;;;;;;11.87;10.67;;;;;;;12.63;63.37;96730.31;5134662;27;20559;-63
2021/03/26 07:21:39;;;;;;;13.63;10.23;;;;;;;12.49;61.74;96734.19;5131028;27;20475;-63
2021/03/26 07:24:36;;;;;;;11.30;10.20;;;;;;;12.63;61.12;96731.09;5114386;28;20470;-64
2021/03/26 07:27:21;;;;;;;11.47;9.97;;;;;;;12.74;60.95;96727.66;5126396;27;20418;-68
2021/03/26 07:30:21;;;;;;;11.83;10.10;;;;;;;12.60;61.44;96733.41;5125334;27;20434;-63
2021/03/26 07:32:53;;;;;;;11.20;10.00;;;;;;;12.44;61.60;96726.97;5129376;27;20460;-69
2021/03/26 07:35:31;;;;;;;13.20;9.87;;;;;;;12.39;61.43;96729.50;5114526;28;20452;-69
2021/03/26 07:38:33;;;;;;;12.67;9.53;;;;;;;12.39;61.88;96725.00;5134194;27;20966;-69
2021/03/26 07:41:12;;;;;;;11.50;10.20;;;;;;;12.46;61.26;96724.94;5126989;27;20471;-69
2021/03/26 07:44:08;;;;;;;13.13;9.70;;;;;;;12.55;61.40;96728.00;5130871;27;20406;-69
2021/03/26 07:46:42;;;;;;;12.30;9.53;;;;;;;12.72;60.97;96728.94;5114132;28;20412;-69
2021/03/26 07:49:38;;;;;;;10.60;9.33;;;;;;;12.93;60.40;96723.88;5114906;27;20434;-63
2021/03/26 07:52:15;;;;;;;11.83;10.23;;;;;;;13.00;61.56;96727.19;5134711;27;20426;-69
2021/03/26 07:54:43;;;;;;;12.77;10.40;;;;;;;13.07;60.10;96725.28;5127011;27;20450;-62
2021/03/26 07:57:27;;;;;;;10.33;9.23;;;;;;;13.07;59.20;96720.00;5138786;27;20558;-62
2021/03/26 08:00:23;;;;;;;11.27;9.30;;;;;;;13.04;59.37;96722.28;5137081;27;20461;-69
2021/03/26 08:03:13;;;;;;;11.43;9.07;;;;;;;13.21;59.38;96718.69;5129286;27;20983;-69
2021/03/26 08:05:55;;;;;;;13.40;9.90;;;;;;;13.08;57.93;96712.88;5113951;28;20399;-69
2021/03/26 08:08:29;;;;;;;9.90;8.90;;;;;;;13.01;58.21;96717.44;5114466;27;20439;-69
2021/03/26 08:11:32;;;;;;;14.13;10.00;;;;;;;13.21;58.61;96718.69;5114043;28;20403;-69
2021/03/26 08:14:12;;;;;;;11.37;9.40;;;;;;;13.01;58.21;96718.25;5124324;27;20426;-69
2021/03/26 08:17:09;;;;;;;15.10;9.80;;;;;;;13.22;57.09;96716.88;5129404;27;20411;-69
2021/03/26 08:20:15;;;;;;;12.70;9.00;;;;;;;13.47;56.91;96722.66;5120719;28;20474;-70
2021/03/26 08:22:56;;;;;;;16.10;9.50;;;;;;;13.61;57.55;96712.59;5070845;28;20478;-70
2021/03/26 08:25:47;;;;;;;10.70;8.77;;;;;;;13.80;56.90;96716.66;5110950;28;20422;-70
2021/03/26 08:28:24;;;;;;;10.97;9.57;;;;;;;13.87;56.13;96712.84;5114299;28;20526;-62
2021/03/26 08:31:23;;;;;;;9.37;8.47;;;;;;;14.06;55.43;96708.13;5114295;28;20903;-62
2021/03/26 08:34:03;;;;;;;13.00;9.63;;;;;;;13.97;55.55;96712.19;5122583;27;20472;-70
2021/03/26 08:36:42;;;;;;;12.80;9.97;;;;;;;13.83;52.97;96717.00;5113733;28;20402;-61
2021/03/26 08:39:47;;;;;;;11.57;9.10;;;;;;;13.57;53.13;96711.50;5112842;28;20443;-61
2021/03/26 08:42:24;;;;;;;10.87;9.00;;;;;;;13.68;54.07;96715.94;5115133;28;20431;-62
2021/03/26 08:44:54;;;;;;;11.33;9.07;;;;;;;13.72;53.88;96714.41;5138396;27;20759;-62
2021/03/26 08:47:33;;;;;;;8.90;8.00;;;;;;;14.09;54.36;96710.31;5132566;27;20901;-62
2021/03/26 08:50:04;;;;;;;12.10;9.20;;;;;;;14.31;53.49;96714.69;5109887;28;21178;-69
2021/03/26 08:52:42;;;;;;;11.90;9.40;;;;;;;14.44;54.00;96714.38;5111972;28;20426;-66
2021/03/26 08:55:41;;;;;;;10.30;8.93;;;;;;;14.67;53.32;96710.75;5130428;27;20424;-66
2021/03/26 08:58:24;;;;;;;14.67;9.20;;;;;;;14.80;53.60;96707.75;5129987;27;20419;-65
2021/03/26 09:00:49;;;;;;;12.07;9.70;;;;;;;14.86;51.78;96708.63;5111739;27;20483;-69
2021/03/26 09:03:26;;;;;;;14.53;10.30;;;;;;;14.93;52.38;96706.63;5109666;28;20829;-69
2021/03/26 09:06:23;;;;;;;11.37;10.17;;;;;;;15.19;52.11;96696.13;5109796;28;20248;-68
2021/03/26 09:08:58;;;;;;;13.43;10.90;;;;;;;15.10;51.90;96710.84;5110443;28;21023;-66
2021/03/26 09:12:02;;;;;;;13.20;10.87;;;;;;;15.14;50.84;96703.19;5109619;28;21039;-65
2021/03/26 09:14:51;;;;;;;12.23;10.43;;;;;;;15.14;49.99;96698.72;5108947;28;20461;-68
2021/03/26 09:17:29;;;;;;;11.43;9.97;;;;;;;15.12;51.92;96706.09;5109322;28;20417;-69
2021/03/26 09:20:02;;;;;;;13.07;10.70;;;;;;;15.41;51.32;96696.16;5109497;28;20494;-65
2021/03/26 09:22:39;;;;;;;11.20;10.07;;;;;;;15.69;51.10;96698.56;5115765;28;20414;-70
2021/03/26 09:25:33;;;;;;;15.10;10.70;;;;;;;15.67;50.50;96695.34;5129745;27;20808;-64
2021/03/26 09:28:20;;;;;;;12.73;10.50;;;;;;;15.75;49.74;96688.81;5132703;27;20406;-64
2021/03/26 09:30:57;;;;;;;12.63;11.00;;;;;;;15.87;48.74;96681.53;5122047;27;20812;-67
2021/03/26 09:33:22;;;;;;;10.90;9.80;;;;;;;15.78;47.98;96696.28;5133737;27;20406;-64
2021/03/26 09:35:53;;;;;;;14.67;11.60;;;;;;;15.85;47.48;96692.38;5129473;27;21138;-64
2021/03/26 09:38:22;;;;;;;11.00;9.90;;;;;;;16.01;47.68;96685.38;5129620;27;20304;-65
2021/03/26 09:41:13;;;;;;;12.30;9.87;;;;;;;15.77;46.81;96692.03;5126637;27;20457;-60
2021/03/26 09:44:18;;;;;;;13.20;10.83;;;;;;;15.93;47.25;96685.81;5128445;27;20566;-65
2021/03/26 09:46:51;;;;;;;13.87;10.00;;;;;;;15.89;46.21;96676.78;5133319;27;20501;-63
2021/03/26 09:49:39;;;;;;;15.30;9.80;;;;;;;15.94;46.20;96667.00;5132845;27;20518;-65
2021/03/26 09:52:30;;;;;;;13.87;9.90;;;;;;;16.15;47.65;96662.69;5133308;27;20452;-62
2021/03/26 09:55:07;;;;;;;11.00;9.57;;;;;;;16.25;46.44;96654.84;5133365;27;20824;-63
2021/03/26 09:57:47;;;;;;;16.87;9.50;;;;;;;16.44;46.28;96659.47;5132273;27;20414;-62
2021/03/26 10:00:57;;;;;;;10.00;9.10;;;;;;;16.59;45.20;96661.47;5132602;27;20494;-63
2021/03/26 10:03:50;;;;;;;10.87;9.77;;;;;;;16.84;45.35;96651.00;5069441;28;20421;-61
2021/03/26 10:06:30;;;;;;;14.23;10.03;;;;;;;16.67;45.17;96649.59;5132995;27;20458;-63
2021/03/26 10:11:50;;;;;;;11.07;9.30;;;;;;;16.99;45.32;96652.94;5112272;28;20407;-64
2021/03/26 10:14:22;;;;;;;10.33;9.23;;;;;;;16.67;45.56;96650.34;5113586;27;21001;-62
2021/03/26 10:17:13;;;;;;;11.53;10.40;;;;;;;16.87;44.58;96647.00;5123593;27;20922;-62
2021/03/26 10:19:50;;;;;;;11.83;9.73;;;;;;;17.07;43.75;96633.84;5111876;28;20882;-61
2021/03/26 10:22:28;;;;;;;9.40;8.40;;;;;;;17.23;45.11;96644.25;5112213;28;20414;-63
2021/03/26 10:25:06;;;;;;;9.83;8.83;;;;;;;17.02;43.42;96629.31;5119455;27;20427;-63
2021/03/26 10:27:47;;;;;;;13.03;10.07;;;;;;;16.94;43.82;96631.69;5111981;28;20524;-62
2021/03/26 10:30:23;;;;;;;9.60;8.60;;;;;;;17.30;43.66;96631.53;5112076;27;20928;-63
2021/03/26 10:32:49;;;;;;;11.13;9.17;;;;;;;17.14;42.60;96627.22;5113089;27;20506;-63
2021/03/26 10:35:21;;;;;;;9.70;8.73;;;;;;;17.21;43.02;96629.66;5121826;27;20453;-62
2021/03/26 10:38:01;;;;;;;8.43;7.63;;;;;;;16.81;42.50;96617.03;5128874;27;20431;-63
2021/03/26 10:40:38;;;;;;;9.73;8.70;;;;;;;17.06;42.62;96611.81;5125473;27;20465;-62
2021/03/26 10:43:23;;;;;;;9.87;7.73;;;;;;;17.21;42.23;96608.41;5111849;28;21183;-62
2021/03/26 10:46:03;;;;;;;8.53;7.67;;;;;;;16.49;42.28;96605.69;5123591;27;20418;-61
2021/03/26 10:48:35;;;;;;;11.27;8.43;;;;;;;16.58;42.62;96601.47;5131311;27;20782;-63
2021/03/26 10:51:16;;;;;;;8.83;7.93;;;;;;;16.71;42.59;96603.69;5124033;27;20415;-62
2021/03/26 10:53:48;;;;;;;8.03;7.27;;;;;;;16.56;42.19;96600.16;5122474;27;20828;-63
2021/03/26 10:56:31;;;;;;;9.87;7.60;;;;;;;16.29;43.06;96595.72;5111638;28;20426;-62
2021/03/26 10:59:03;;;;;;;8.07;6.00;;;;;;;16.37;41.75;96599.75;5111097;28;20802;-62
2021/03/26 11:01:37;;;;;;;7.50;6.70;;;;;;;15.93;42.09;96595.72;5115318;27;20553;-63
2021/03/26 11:04:33;;;;;;;9.30;6.47;;;;;;;15.99;42.20;96590.22;5132000;27;20934;-63
2021/03/26 11:07:07;;;;;;;9.23;6.70;;;;;;;16.04;42.85;96590.25;5124858;27;20509;-62
2021/03/26 11:09:46;;;;;;;7.63;6.93;;;;;;;15.97;41.39;96581.72;5115854;27;20446;-64
2021/03/26 11:12:18;;;;;;;7.10;6.40;;;;;;;16.32;41.75;96586.47;5110716;28;20407;-63
2021/03/26 11:14:57;;;;;;;9.30;6.60;;;;;;;16.51;42.25;96573.59;5120703;27;20509;-62
2021/03/26 11:17:34;;;;;;;7.90;7.10;;;;;;;16.48;42.14;96572.25;5115815;27;20872;-66
2021/03/26 11:20:27;;;;;;;8.10;6.50;;;;;;;16.51;41.04;96571.75;5119838;27;20574;-63
2021/03/26 11:23:10;;;;;;;5.33;4.83;;;;;;;16.57;39.77;96580.53;5121612;27;20445;-65
2021/03/26 11:25:40;;;;;;;6.50;5.80;;;;;;;16.89;39.98;96575.88;5111383;27;20787;-64
2021/03/26 11:28:14;;;;;;;8.60;7.80;;;;;;;16.76;40.92;96574.50;5110007;27;20442;-63
2021/03/26 11:30:48;;;;;;;8.13;7.07;;;;;;;16.96;40.61;96571.94;5110919;28;21109;-65
2021/03/26 11:33:18;;;;;;;8.27;7.53;;;;;;;16.99;41.15;96565.31;5131038;27;20414;-66
2021/03/26 11:35:46;;;;;;;8.33;7.53;;;;;;;16.90;40.17;96562.38;5119610;27;20482;-60
2021/03/26 11:38:33;;;;;;;10.47;7.80;;;;;;;17.18;41.22;96553.16;5110202;28;20522;-60
2021/03/26 11:41:05;;;;;;;8.93;8.13;;;;;;;17.03;41.61;96563.75;5110544;28;20455;-60
2021/03/26 11:43:42;;;;;;;13.20;9.83;;;;;;;17.11;40.51;96553.41;5109175;28;20794;-60
2021/03/26 11:46:13;;;;;;;10.67;8.87;;;;;;;17.04;40.95;96541.44;5122293;27;20426;-61
2021/03/26 11:48:56;;;;;;;9.37;8.30;;;;;;;17.13;40.81;96539.88;5129922;27;20426;-60
2021/03/26 11:51:33;;;;;;;9.40;8.30;;;;;;;17.39;41.77;96529.00;5130933;27;21033;-61
2021/03/26 11:54:03;;;;;;;10.40;7.57;;;;;;;17.56;39.91;96538.63;5125656;27;20508;-59
2021/03/26 11:56:44;;;;;;;10.87;8.57;;;;;;;17.74;39.93;96544.22;5130871;27;20889;-60
2021/03/26 11:59:15;;;;;;;10.77;8.37;;;;;;;17.38;40.51;96540.72;5130682;27;20430;-60
2021/03/26 12:02:06;;;;;;;9.83;8.80;;;;;;;17.59;40.14;96530.94;5130358;27;20458;-59
2021/03/26 12:04:43;;;;;;;9.47;8.47;;;;;;;17.65;40.70;96529.06;5113291;27;20442;-57
2021/03/26 12:07:16;;;;;;;11.13;8.47;;;;;;;17.71;39.61;96523.50;5123595;27;20437;-58
2021/03/26 12:09:58;;;;;;;13.20;9.33;;;;;;;17.95;40.71;96515.78;5124579;27;20450;-61
2021/03/26 12:12:37;;;;;;;10.30;9.23;;;;;;;18.53;39.55;96507.16;5122156;27;20422;-66
2021/03/26 12:15:07;;;;;;;10.97;9.27;;;;;;;19.10;38.25;96498.59;5110232;28;20502;-57
2021/03/26 12:17:41;;;;;;;9.03;8.13;;;;;;;18.58;37.50;96506.31;5109869;28;20403;-60